KADM/ADM METAR and TAF weather

Enter ICAO airport designator
Station Type Date Time Source
KADM METAR 2018/10/16 13:55 UTC NOAA

KADM 161355Z 02010KT 10SM BKN040 OVC050 07/04 A3031


Station Type Date Time Source
KADM Decoded METAR 2018/10/16 13:55 UTC NOAA

Ardmore, Ardmore Municipal Airport, OK, United States (KADM) 34-18-11N 097-01-10W
Oct 16, 2018 - 09:55 AM EDT / 2018.10.16 1355 UTC
Wind: from the NNE (020 degrees) at 12 MPH (10 KT):0
Visibility: 10 mile(s):0
Sky conditions: overcast
Temperature: 44 F (7 C)
Dew Point: 39 F (4 C)
Relative Humidity: 81%
Pressure (altimeter): 30.31 in. Hg (1026 hPa)
ob: KADM 161355Z 02010KT 10SM BKN040 OVC050 07/04 A3031
cycle: 14

Station Type Date Time Source
KADM TAF UTC NOAA

Error!


Example: see airport list